createdAt,value
2023-04-01T00:01:06.721Z,25.46
2023-04-01T00:05:06.914Z,25.49
2023-04-01T00:09:07.067Z,25.47
2023-04-01T00:13:07.270Z,25.44
2023-04-01T00:17:07.479Z,25.43
2023-04-01T00:21:07.905Z,25.44
2023-04-01T00:25:07.900Z,25.43
2023-04-01T00:29:08.000Z,25.44
2023-04-01T00:33:09.010Z,25.41
2023-04-01T00:37:08.405Z,25.41
2023-04-01T00:41:08.592Z,25.40
2023-04-01T00:45:08.905Z,25.40
2023-04-01T00:49:09.015Z,25.39
2023-04-01T00:53:09.166Z,25.39
2023-04-01T00:57:09.502Z,25.37
2023-04-01T01:01:09.681Z,25.37
2023-04-01T01:05:09.729Z,25.39
2023-04-01T01:09:09.862Z,25.36
2023-04-01T01:13:10.435Z,25.34
2023-04-01T01:17:10.273Z,25.34
2023-04-01T01:21:10.920Z,25.34
2023-04-01T01:25:10.960Z,25.33
2023-04-01T01:29:10.832Z,25.33
2023-04-01T01:33:11.448Z,25.32
2023-04-01T01:37:11.448Z,25.30
2023-04-01T01:41:11.433Z,25.30
2023-04-01T01:45:11.930Z,25.30
2023-04-01T01:49:11.746Z,25.30
2023-04-01T01:53:12.425Z,25.30
2023-04-01T01:57:12.481Z,25.29
2023-04-01T02:01:12.414Z,25.28
2023-04-01T02:05:12.973Z,25.28
2023-04-01T02:09:12.777Z,25.26
2023-04-01T02:13:13.020Z,25.26
2023-04-01T02:17:13.456Z,25.26
2023-04-01T02:21:13.444Z,25.25
2023-04-01T02:25:13.969Z,25.26
2023-04-01T02:29:13.781Z,25.25
2023-04-01T02:33:14.451Z,25.23
2023-04-01T02:37:14.466Z,25.23
2023-04-01T02:41:14.453Z,25.23
2023-04-01T02:45:14.960Z,25.23
2023-04-01T02:49:14.735Z,25.23
2023-04-01T02:53:14.986Z,25.23
2023-04-01T02:57:15.536Z,25.19
2023-04-01T03:01:15.217Z,25.20
2023-04-01T03:05:15.284Z,25.18
2023-04-01T03:09:15.497Z,25.19
2023-04-01T03:13:15.504Z,25.19
2023-04-01T03:17:15.973Z,25.19
2023-04-01T03:21:15.963Z,25.15
2023-04-01T03:25:15.684Z,25.18
2023-04-01T03:29:15.968Z,25.15
2023-04-01T03:33:15.795Z,25.16
2023-04-01T03:37:15.980Z,25.16
2023-04-01T03:41:15.993Z,25.18
2023-04-01T03:45:15.907Z,25.15
2023-04-01T03:49:16.502Z,25.12
2023-04-01T03:53:16.450Z,25.10
2023-04-01T03:57:16.216Z,25.10
2023-04-01T04:01:16.274Z,25.12
2023-04-01T04:05:17.552Z,25.12
2023-04-01T04:09:16.497Z,25.09
2023-04-01T04:13:16.417Z,25.12
2023-04-01T04:17:17.020Z,25.12
2023-04-01T04:21:16.610Z,25.08
2023-04-01T04:25:16.983Z,25.06
2023-04-01T04:29:16.989Z,25.05
2023-04-01T04:33:16.735Z,25.08
2023-04-01T04:37:16.993Z,25.06
2023-04-01T04:41:16.816Z,25.06
2023-04-01T04:45:16.861Z,25.05
2023-04-01T04:49:17.004Z,25.03
2023-04-01T04:53:16.956Z,25.08
2023-04-01T04:57:17.539Z,25.05
2023-04-01T05:01:17.093Z,25.02
2023-04-01T05:05:17.528Z,25.03
2023-04-01T05:09:17.524Z,25.03
2023-04-01T05:13:17.187Z,25.02
2023-04-01T05:17:17.506Z,25.00
2023-04-01T05:21:17.310Z,24.99
2023-04-01T05:25:17.527Z,24.99
2023-04-01T05:29:17.415Z,24.99
2023-04-01T05:33:18.018Z,24.98
2023-04-01T05:37:17.512Z,25.02
2023-04-01T05:41:17.605Z,24.96
2023-04-01T05:45:18.007Z,24.98
2023-04-01T05:49:17.738Z,24.96
2023-04-01T05:53:18.010Z,24.96
2023-04-01T05:57:17.916Z,24.96
2023-04-01T06:01:17.951Z,24.95
2023-04-01T06:05:18.529Z,24.96
2023-04-01T06:09:18.108Z,24.99
2023-04-01T06:13:18.502Z,24.93
2023-04-01T06:17:18.238Z,24.95
2023-04-01T06:21:18.352Z,24.93
2023-04-01T06:25:18.590Z,24.92
2023-04-01T06:29:18.559Z,24.93
2023-04-01T06:33:19.031Z,24.93
2023-04-01T06:37:18.581Z,24.95
2023-04-01T06:41:18.668Z,24.92
2023-04-01T06:45:19.043Z,24.91
2023-04-01T06:49:18.830Z,24.92
2023-04-01T06:53:19.049Z,24.92
2023-04-01T06:57:19.304Z,24.93
2023-04-01T07:01:19.191Z,24.93
2023-04-01T07:05:19.531Z,24.91
2023-04-01T07:09:19.343Z,24.93
2023-04-01T07:13:19.566Z,24.89
2023-04-01T07:17:19.572Z,24.93
2023-04-01T07:21:19.558Z,24.92
2023-04-01T07:25:20.045Z,24.91
2023-04-01T07:29:19.708Z,24.92
2023-04-01T07:33:20.120Z,24.91
2023-04-01T07:37:19.843Z,24.91
2023-04-01T07:41:20.050Z,24.93
2023-04-01T07:45:20.069Z,24.91
2023-04-01T07:49:20.544Z,24.91
2023-04-01T07:53:20.171Z,24.91
2023-04-01T07:57:20.643Z,24.89
2023-04-01T08:01:20.365Z,24.89
2023-04-01T08:05:20.550Z,24.89
2023-04-01T08:09:20.555Z,24.89
2023-04-01T08:13:20.581Z,24.91
2023-04-01T08:17:21.103Z,24.89
2023-04-01T08:21:21.068Z,24.89
2023-04-01T08:25:21.064Z,24.91
2023-04-01T08:29:20.897Z,24.91
2023-04-01T08:33:20.963Z,24.91
2023-04-01T08:37:21.056Z,24.88
2023-04-01T08:41:21.603Z,24.93
2023-04-01T08:45:21.581Z,24.92
2023-04-01T08:49:21.261Z,24.95
2023-04-01T08:53:21.333Z,24.92
2023-04-01T08:57:21.599Z,24.93
2023-04-01T09:01:21.474Z,24.93
2023-04-01T09:05:21.604Z,24.95
2023-04-01T09:09:21.548Z,24.93
2023-04-01T09:13:21.599Z,24.95
2023-04-01T09:17:22.109Z,24.96
2023-04-01T09:21:22.103Z,24.98
2023-04-01T09:25:22.143Z,24.96
2023-04-01T09:29:21.895Z,24.98
2023-04-01T09:33:21.984Z,24.98
2023-04-01T09:37:22.103Z,24.96
2023-04-01T09:41:22.082Z,24.99
2023-04-01T09:45:22.119Z,24.96
2023-04-01T09:49:22.127Z,24.98
2023-04-01T09:53:22.610Z,24.96
2023-04-01T09:57:22.690Z,24.99
2023-04-01T10:01:22.266Z,24.95
2023-04-01T10:05:22.668Z,24.93
2023-04-01T10:09:22.341Z,24.95
2023-04-01T10:13:22.611Z,24.93
2023-04-01T10:17:22.719Z,24.96
2023-04-01T10:21:22.630Z,24.96
2023-04-01T10:25:22.629Z,24.96
2023-04-01T10:29:22.611Z,24.95
2023-04-01T10:33:22.687Z,24.96
2023-04-01T10:37:23.134Z,24.96
2023-04-01T10:41:23.130Z,24.98
2023-04-01T10:45:23.110Z,24.95
2023-04-01T10:49:22.856Z,24.95
2023-04-01T10:53:22.930Z,24.96
2023-04-01T10:57:23.166Z,24.93
2023-04-01T11:01:23.121Z,24.93
2023-04-01T11:05:23.614Z,24.95
2023-04-01T11:09:23.148Z,24.95
2023-04-01T11:13:23.682Z,24.93
2023-04-01T11:17:23.714Z,25.00
2023-04-01T11:21:26.097Z,24.98
2023-04-01T11:25:23.243Z,25.00
2023-04-01T11:29:23.649Z,24.96
2023-04-01T11:33:23.654Z,24.98
2023-04-01T11:37:23.631Z,24.95
2023-04-01T11:41:23.153Z,24.98
2023-04-01T11:45:23.091Z,24.96
2023-04-01T11:49:23.075Z,24.99
2023-04-01T11:53:23.132Z,25.00
2023-04-01T11:57:23.048Z,24.99
2023-04-01T12:01:22.957Z,24.99
2023-04-01T12:05:22.900Z,24.99
2023-04-01T12:09:22.864Z,24.98
2023-04-01T12:13:23.262Z,24.99
2023-04-01T12:17:23.158Z,24.96
2023-04-01T12:21:22.738Z,24.98
2023-04-01T12:25:22.760Z,24.98
2023-04-01T12:29:22.694Z,24.98
2023-04-01T12:33:22.654Z,24.93
2023-04-01T12:37:22.628Z,24.96
2023-04-01T12:41:22.701Z,24.96
2023-04-01T12:45:22.544Z,24.96
2023-04-01T12:49:22.521Z,24.96
2023-04-01T12:53:22.702Z,24.95
2023-04-01T12:57:22.546Z,24.95
2023-04-01T13:01:30.253Z,24.92
2023-04-01T13:05:22.478Z,24.93
2023-04-01T13:09:22.478Z,24.93
2023-04-01T13:13:22.710Z,24.92
2023-04-01T13:17:22.714Z,24.92
2023-04-01T13:21:22.367Z,24.91
2023-04-01T13:25:22.336Z,24.92
2023-04-01T13:29:22.682Z,24.92
2023-04-01T13:33:22.823Z,24.92
2023-04-01T13:37:22.727Z,24.91
2023-04-01T13:41:22.502Z,24.92
2023-04-01T13:45:22.706Z,24.91
2023-04-01T13:49:22.693Z,24.91
2023-04-01T13:53:22.701Z,24.91
2023-04-01T13:57:23.403Z,24.91
2023-04-01T14:01:22.867Z,24.89
2023-04-01T14:05:29.366Z,24.91
2023-04-01T14:09:24.207Z,24.91
2023-04-01T14:13:23.209Z,24.91
2023-04-01T14:17:23.196Z,24.89
2023-04-01T14:21:22.692Z,24.89
2023-04-01T14:25:23.219Z,24.89
2023-04-01T14:29:23.208Z,24.88
2023-04-01T14:33:23.196Z,24.88
2023-04-01T14:37:22.966Z,24.89
2023-04-01T14:41:23.063Z,24.86
2023-04-01T14:45:23.223Z,24.88
2023-04-01T14:49:23.730Z,24.89
2023-04-01T14:53:23.326Z,24.88
2023-04-01T14:57:23.493Z,24.88
2023-04-01T15:01:23.820Z,24.92
2023-04-01T15:05:23.720Z,24.88
2023-04-01T15:09:23.731Z,24.85
2023-04-01T15:13:24.235Z,24.86
2023-04-01T15:17:23.914Z,24.86
2023-04-01T15:21:24.034Z,24.88
2023-04-01T15:25:24.242Z,24.88
2023-04-01T15:29:24.272Z,24.83
2023-04-01T15:33:24.754Z,24.85
2023-04-01T15:37:24.363Z,24.85
2023-04-01T15:41:24.478Z,24.85
2023-04-01T15:45:24.759Z,24.82
2023-04-01T15:49:24.772Z,24.83
2023-04-01T15:53:25.250Z,24.82
2023-04-01T15:57:24.942Z,24.79
2023-04-01T16:01:25.076Z,24.82
2023-04-01T16:05:25.244Z,24.81
2023-04-01T16:09:25.287Z,24.83
2023-04-01T16:13:25.394Z,24.82
2023-04-01T16:17:25.433Z,24.82
2023-04-01T16:21:25.562Z,24.79
2023-04-01T16:25:25.757Z,24.79
2023-04-01T16:29:25.862Z,24.79
2023-04-01T16:33:25.846Z,24.78
2023-04-01T16:37:26.288Z,24.77
2023-04-01T16:41:26.033Z,24.78
2023-04-01T16:45:26.284Z,24.78
2023-04-01T16:49:26.777Z,24.77
2023-04-01T16:53:26.386Z,24.77
2023-04-01T16:57:26.890Z,24.75
2023-04-01T17:01:26.685Z,24.77
2023-04-01T17:05:26.755Z,24.74
2023-04-01T17:09:26.863Z,24.74
2023-04-01T17:13:27.003Z,24.74
2023-04-01T17:17:27.104Z,24.74
2023-04-01T17:21:27.284Z,24.77
2023-04-01T17:25:27.824Z,24.74
2023-04-01T17:29:27.784Z,24.74
2023-04-01T17:33:27.616Z,24.74
2023-04-01T17:37:27.781Z,24.75
2023-04-01T17:41:27.918Z,24.74
2023-04-01T17:45:28.291Z,24.72
2023-04-01T17:49:28.171Z,24.71
2023-04-01T17:53:28.328Z,24.72
2023-04-01T17:57:28.922Z,24.71
2023-04-01T18:01:28.616Z,24.70
2023-04-01T18:05:28.807Z,24.71
2023-04-01T18:09:28.830Z,24.68
2023-04-01T18:13:29.277Z,24.72
2023-04-01T18:17:29.393Z,24.70
2023-04-01T18:21:29.309Z,24.70
2023-04-01T18:25:29.397Z,24.67
2023-04-01T18:29:29.563Z,24.68
2023-04-01T18:33:29.848Z,24.67
2023-04-01T18:37:29.908Z,24.68
2023-04-01T18:41:30.318Z,24.67
2023-04-01T18:45:30.354Z,24.68
2023-04-01T18:49:30.376Z,24.68
2023-04-01T18:53:30.824Z,24.65
2023-04-01T18:57:30.751Z,24.68
2023-04-01T19:01:30.877Z,24.64
2023-04-01T19:05:31.807Z,24.67
2023-04-01T19:09:31.271Z,24.62
2023-04-01T19:13:31.800Z,24.64
2023-04-01T19:17:32.100Z,24.64
2023-04-01T19:21:31.792Z,24.64
2023-04-01T19:25:31.870Z,24.62
2023-04-01T19:29:32.039Z,24.60
2023-04-01T19:33:32.322Z,24.64
2023-04-01T19:37:32.846Z,24.61
2023-04-01T19:41:32.618Z,24.62
2023-04-01T19:45:32.826Z,24.61
2023-04-01T19:49:33.350Z,24.61
2023-04-01T19:53:33.325Z,24.64
2023-04-01T19:57:33.335Z,24.60
2023-04-01T20:01:44.072Z,24.61
2023-04-01T20:05:34.633Z,24.61
2023-04-01T20:09:33.857Z,24.60
2023-04-01T20:13:33.865Z,24.60
2023-04-01T20:17:33.893Z,24.58
2023-04-01T20:21:33.843Z,24.58
2023-04-01T20:25:34.182Z,24.61
2023-04-01T20:29:34.348Z,24.58
2023-04-01T20:33:34.345Z,24.58
2023-04-01T20:37:34.835Z,24.60
2023-04-01T20:41:34.856Z,24.58
2023-04-01T20:45:35.058Z,24.55
2023-04-01T20:49:35.347Z,24.54
2023-04-01T20:53:35.386Z,24.57
2023-04-01T20:57:35.931Z,24.57
2023-04-01T21:01:35.571Z,24.54
2023-04-01T21:05:36.079Z,24.52
2023-04-01T21:09:35.957Z,24.57
2023-04-01T21:13:36.383Z,24.54
2023-04-01T21:17:36.392Z,24.52
2023-04-01T21:21:36.534Z,24.54
2023-04-01T21:25:37.163Z,24.52
2023-04-01T21:29:37.364Z,24.55
2023-04-01T21:33:37.124Z,24.52
2023-04-01T21:37:37.368Z,24.50
2023-04-01T21:41:37.541Z,24.51
2023-04-01T21:45:37.848Z,24.51
2023-04-01T21:49:38.392Z,24.50
2023-04-01T21:53:38.220Z,24.50
2023-04-01T21:57:39.033Z,24.51
2023-04-01T22:01:38.667Z,24.50
2023-04-01T22:05:38.902Z,24.50
2023-04-01T22:09:39.032Z,24.50
2023-04-01T22:13:39.857Z,24.48
2023-04-01T22:17:39.468Z,24.48
2023-04-01T22:21:39.601Z,24.48
2023-04-01T22:25:39.868Z,24.48
2023-04-01T22:29:43.069Z,24.47
2023-04-01T22:33:40.403Z,24.48
2023-04-01T22:37:40.397Z,24.46
2023-04-01T22:41:39.947Z,24.47
2023-04-01T22:45:40.418Z,24.47
2023-04-01T22:49:39.895Z,24.46
2023-04-01T22:53:39.861Z,24.47
2023-04-01T22:57:39.893Z,24.47
2023-04-01T23:01:40.385Z,24.44
2023-04-01T23:05:39.728Z,24.43
2023-04-01T23:09:39.907Z,24.44
2023-04-01T23:13:39.719Z,24.44
2023-04-01T23:17:41.929Z,24.44
2023-04-01T23:21:40.396Z,24.43
2023-04-01T23:25:40.875Z,24.43
2023-04-01T23:29:40.394Z,24.40
2023-04-01T23:33:41.920Z,24.41
2023-04-01T23:37:40.341Z,24.41
2023-04-01T23:41:40.916Z,24.43
2023-04-01T23:45:40.897Z,24.41
2023-04-01T23:49:40.591Z,24.41
2023-04-01T23:53:40.936Z,24.38
2023-04-01T23:57:40.746Z,24.41
